Time;durP1;ratioP1;P1;durP2;ratioP2;P2;SDS_P1;SDS_P2;PMS_P1;PMS_P2;Temp;Humidity;BMP_temperature;BMP_pressure;BME280_temperature;BME280_humidity;BME280_pressure;Samples;Min_cycle;Max_cycle;Signal;HPM_P1;HPM_P2
2023/10/07 00:08:51;;;;;;;;;;;;;;;;;;3434;307;612170627;-35
2023/10/07 00:18:34;;;;;;;;;;;;;;;;;;3416;307;576164694;-32
2023/10/07 00:27:40;;;;;;;;;;;;;;;;;;1758;311;540149634;-36
2023/10/07 00:37:58;;;;;;;;;;;;;;;;;;1266;307;612171656;-31
2023/10/07 00:46:34;;;;;;;;;;;;;;;;;;791;1314;513621583;-32
2023/10/07 00:55:38;;;;;;;;;;;;;;;;;;2616;307;540148509;-32
2023/10/07 01:06:10;;;;;;;;;;;;;;;;;;3556;307;612168458;-36
2023/10/07 01:15:48;;;;;;;;;;;;;;;;;;2;576161408;576161408;-32
2023/10/07 01:24:55;;;;;;;;;;;;;;;;;;2333;307;540148674;-31
2023/10/07 01:35:11;;;;;;;;;;;;;;;;;;488;1314;612169951;-30
2023/10/07 01:44:55;;;;;;;;;;;;;;;;;;1588;307;576159210;-35
2023/10/07 02:32:35;;;;;;;;;;;;;;;;;;108864;301;106616;31
2023/10/07 02:35:01;;;;;;;;;;;;;;;;;;104501;308;237195;-35
2023/10/07 02:37:30;;;;;;;;;;;;;;;;;;104562;308;80960;-29
2023/10/07 02:42:32;;;;;;;;;;;;;;;;;;104526;308;80960;-37
2023/10/07 02:47:26;;;;;;;;;;;;;;;;;;104551;308;81361;-34
2023/10/07 02:49:52;;;;;;;;;;;;;;;;;;104534;308;81048;-33
2023/10/07 02:52:19;;;;;;;;;;;;;;;;;;104654;308;81382;-35
2023/10/07 02:54:44;;;;;;;;;;;;;;;;;;104552;308;80981;-31
2023/10/07 02:57:21;;;;;;;;;;;;;;;;;;104491;308;82089;-30
2023/10/07 03:00:00;;;;;;;;;;;;;;;;;;104437;308;82059;-31
2023/10/07 03:02:37;;;;;;;;;;;;;;;;;;104398;308;82018;-34
2023/10/07 03:07:49;;;;;;;;;;;;;;;;;;104456;308;82060;-34
2023/10/07 03:10:18;;;;;;;;;;;;;;;;;;104457;308;82050;-35
2023/10/07 03:12:47;;;;;;;;;;;;;;;;;;104433;308;82146;-34
2023/10/07 03:15:21;;;;;;;;;;;;;;;;;;104460;308;82057;-29
2023/10/07 03:17:46;;;;;;;;;;;;;;;;;;104566;308;82513;-34
2023/10/07 03:25:32;;;;;;;;;;;;;;;;;;104537;308;82130;-30
2023/10/07 03:28:06;;;;;;;;;;;;;;;;;;104519;308;82028;-34
2023/10/07 03:30:32;;;;;;;;;;;;;;;;;;104549;308;82086;-35
2023/10/07 03:32:58;;;;;;;;;;;;;;;;;;104578;308;82079;-33
2023/10/07 03:35:35;;;;;;;;;;;;;;;;;;104765;308;82059;-29
2023/10/07 03:38:02;;;;;;;;;;;;;;;;;;104699;308;82143;-29
2023/10/07 03:40:34;;;;;;;;;;;;;;;;;;104698;308;82057;-35
2023/10/07 03:43:00;;;;;;;;;;;;;;;;;;104679;308;82060;-34
2023/10/07 03:45:28;;;;;;;;;;;;;;;;;;104721;308;82092;-34
2023/10/07 03:47:54;;;;;;;;;;;;;;;;;;104685;308;82060;-34
2023/10/07 03:50:29;;;;;;;;;;;;;;;;;;104579;308;82079;-31
2023/10/07 03:52:54;;;;;;;;;;;;;;;;;;104565;308;82143;-35
2023/10/07 03:55:19;;;;;;;;;;;;;;;;;;104597;308;82069;-31
2023/10/07 03:57:45;;;;;;;;;;;;;;;;;;104730;308;82088;-29
2023/10/07 04:00:11;;;;;;;;;;;;;;;;;;104711;308;82083;-34
2023/10/07 04:02:36;;;;;;;;;;;;;;;;;;104733;308;82064;-31
2023/10/07 04:05:10;;;;;;;;;;;;;;;;;;104777;308;82085;-30
2023/10/07 04:07:35;;;;;;;;;;;;;;;;;;104606;308;82066;-30
2023/10/07 04:10:36;;;;;;;;;;;;;;;;;;104674;308;82079;-32
2023/10/07 04:12:47;;;;;;;;;;;;;;;;;;104657;308;82120;-29
2023/10/07 04:15:16;;;;;;;;;;;;;;;;;;104530;308;82063;-35
2023/10/07 04:17:42;;;;;;;;;;;;;;;;;;104777;308;82082;-31
2023/10/07 04:22:45;;;;;;;;;;;;;;;;;;104624;308;82095;-29
2023/10/07 04:25:17;;;;;;;;;;;;;;;;;;104679;308;82095;-34
2023/10/07 04:27:42;;;;;;;;;;;;;;;;;;104673;308;82341;-31
2023/10/07 04:30:10;;;;;;;;;;;;;;;;;;104688;308;82091;-34
2023/10/07 04:32:37;;;;;;;;;;;;;;;;;;104676;308;82059;-34
2023/10/07 04:37:47;;;;;;;;;;;;;;;;;;104634;308;82056;-29
2023/10/07 04:40:53;;;;;;;;;;;;;;;;;;104404;308;82216;-33
2023/10/07 04:43:25;;;;;;;;;;;;;;;;;;104568;308;82079;-28
2023/10/07 04:48:40;;;;;;;;;;;;;;;;;;104623;308;82053;-30
2023/10/07 04:51:04;;;;;;;;;;;;;;;;;;104734;308;82051;-30
2023/10/07 04:53:37;;;;;;;;;;;;;;;;;;104615;308;82089;-34
2023/10/07 04:56:02;;;;;;;;;;;;;;;;;;104717;308;82418;-33
2023/10/07 04:58:28;;;;;;;;;;;;;;;;;;104673;308;82063;-30
2023/10/07 05:01:04;;;;;;;;;;;;;;;;;;104732;308;82146;-35
2023/10/07 05:03:29;;;;;;;;;;;;;;;;;;104625;308;82108;-34
2023/10/07 05:05:55;;;;;;;;;;;;;;;;;;104667;308;82569;-36
2023/10/07 05:08:22;;;;;;;;;;;;;;;;;;104663;308;82067;-29
2023/10/07 05:10:52;;;;;;;;;;;;;;;;;;104753;308;82706;-30
2023/10/07 05:13:17;;;;;;;;;;;;;;;;;;104705;308;82265;-34
2023/10/07 05:15:42;;;;;;;;;;;;;;;;;;104697;308;82079;-34
2023/10/07 05:18:07;;;;;;;;;;;;;;;;;;104593;308;82152;-35
2023/10/07 05:20:36;;;;;;;;;;;;;;;;;;104675;308;82166;-33
2023/10/07 05:23:04;;;;;;;;;;;;;;;;;;104684;308;82044;-33
2023/10/07 05:25:30;;;;;;;;;;;;;;;;;;104614;308;82053;-37
2023/10/07 05:27:56;;;;;;;;;;;;;;;;;;104535;308;82056;-34
2023/10/07 05:30:21;;;;;;;;;;;;;;;;;;104689;308;82146;-31
2023/10/07 05:32:47;;;;;;;;;;;;;;;;;;104826;308;82137;-33
2023/10/07 05:35:15;;;;;;;;;;;;;;;;;;104720;308;82553;-35
2023/10/07 05:37:42;;;;;;;;;;;;;;;;;;104730;308;82079;-30
2023/10/07 05:40:07;;;;;;;;;;;;;;;;;;104592;308;82137;-30
2023/10/07 05:42:32;;;;;;;;;;;;;;;;;;104673;308;82127;-32
2023/10/07 05:44:59;;;;;;;;;;;;;;;;;;104749;308;82121;-32
2023/10/07 05:47:24;;;;;;;;;;;;;;;;;;104615;308;82082;-34
2023/10/07 05:49:49;;;;;;;;;;;;;;;;;;104683;308;82088;-30
2023/10/07 05:52:18;;;;;;;;;;;;;;;;;;104749;308;82094;-30
2023/10/07 05:54:43;;;;;;;;;;;;;;;;;;104716;308;82040;-30
2023/10/07 05:57:09;;;;;;;;;;;;;;;;;;104722;308;82057;-30
2023/10/07 05:59:34;;;;;;;;;;;;;;;;;;104734;308;81999;-30
2023/10/07 06:02:01;;;;;;;;;;;;;;;;;;104486;308;82121;-36
2023/10/07 06:04:28;;;;;;;;;;;;;;;;;;104640;308;82073;-34
2023/10/07 06:06:53;;;;;;;;;;;;;;;;;;104654;308;82084;-34
2023/10/07 06:09:18;;;;;;;;;;;;;;;;;;104700;308;82092;-30
2023/10/07 06:11:44;;;;;;;;;;;;;;;;;;104613;308;82133;-32
2023/10/07 06:14:11;;;;;;;;;;;;;;;;;;104666;308;82371;-35
2023/10/07 06:16:37;;;;;;;;;;;;;;;;;;104664;308;82056;-34
2023/10/07 06:19:02;;;;;;;;;;;;;;;;;;104697;308;82089;-34
2023/10/07 06:21:27;;;;;;;;;;;;;;;;;;104660;308;82057;-31
2023/10/07 06:23:53;;;;;;;;;;;;;;;;;;104646;308;82133;-37
2023/10/07 06:26:18;;;;;;;;;;;;;;;;;;104600;308;82067;-31
2023/10/07 06:28:44;;;;;;;;;;;;;;;;;;104522;308;82073;-34
2023/10/07 06:33:59;;;;;;;;;;;;;;;;;;104617;308;82060;-31
2023/10/07 06:36:24;;;;;;;;;;;;;;;;;;104654;308;82057;-34
2023/10/07 06:38:53;;;;;;;;;;;;;;;;;;104647;308;82371;-30
2023/10/07 06:41:18;;;;;;;;;;;;;;;;;;104552;308;83190;-32
2023/10/07 06:43:49;;;;;;;;;;;;;;;;;;104574;308;83234;-35
2023/10/07 06:46:15;;;;;;;;;;;;;;;;;;104586;308;83180;-35
2023/10/07 06:48:40;;;;;;;;;;;;;;;;;;104484;308;83189;-31
2023/10/07 06:51:06;;;;;;;;;;;;;;;;;;104581;308;83177;-33
2023/10/07 06:53:31;;;;;;;;;;;;;;;;;;104657;308;83154;-34
2023/10/07 06:55:58;;;;;;;;;;;;;;;;;;104590;308;83179;-34
2023/10/07 06:58:25;;;;;;;;;;;;;;;;;;104571;308;83192;-30
2023/10/07 07:00:51;;;;;;;;;;;;;;;;;;104625;308;83196;-31
2023/10/07 07:03:19;;;;;;;;;;;;;;;;;;104552;308;83157;-33
2023/10/07 07:05:45;;;;;;;;;;;;;;;;;;104501;308;83171;-37
2023/10/07 07:08:10;;;;;;;;;;;;;;;;;;104536;308;83234;-34
2023/10/07 07:10:36;;;;;;;;;;;;;;;;;;104777;308;83251;-30
2023/10/07 07:13:12;;;;;;;;;;;;;;;;;;104699;308;83183;-37
2023/10/07 07:15:37;;;;;;;;;;;;;;;;;;104725;308;83160;-34
2023/10/07 07:18:14;;;;;;;;;;;;;;;;;;104682;308;83167;-34
2023/10/07 07:23:17;;;;;;;;;;;;;;;;;;104669;308;83190;-34
2023/10/07 07:25:42;;;;;;;;;;;;;;;;;;104500;308;83213;-36
2023/10/07 07:28:09;;;;;;;;;;;;;;;;;;104710;308;83195;-35
2023/10/07 07:30:35;;;;;;;;;;;;;;;;;;104568;308;83151;-32
2023/10/07 07:33:06;;;;;;;;;;;;;;;;;;104577;308;83800;-34
2023/10/07 07:40:45;;;;;;;;;;;;;;;;;;104662;308;83180;-34
2023/10/07 07:43:13;;;;;;;;;;;;;;;;;;104718;308;83196;-29
2023/10/07 07:45:38;;;;;;;;;;;;;;;;;;104688;308;83868;-31
2023/10/07 07:48:08;;;;;;;;;;;;;;;;;;104754;308;83516;-35
2023/10/07 07:50:35;;;;;;;;;;;;;;;;;;104715;308;83305;-31
2023/10/07 07:53:06;;;;;;;;;;;;;;;;;;104612;308;83154;-30
2023/10/07 07:55:32;;;;;;;;;;;;;;;;;;104631;308;83180;-31
2023/10/07 07:57:57;;;;;;;;;;;;;;;;;;104698;308;83213;-35
2023/10/07 08:00:25;;;;;;;;;;;;;;;;;;104696;308;83160;-34
2023/10/07 08:02:50;;;;;;;;;;;;;;;;;;104705;308;83145;-35
2023/10/07 08:05:16;;;;;;;;;;;;;;;;;;104459;308;83596;-35
2023/10/07 08:07:43;;;;;;;;;;;;;;;;;;104769;308;83192;-35
2023/10/07 08:10:10;;;;;;;;;;;;;;;;;;104632;308;83564;-30
2023/10/07 08:12:36;;;;;;;;;;;;;;;;;;104620;308;83176;-37
2023/10/07 08:17:39;;;;;;;;;;;;;;;;;;104663;308;83180;-35
2023/10/07 08:20:10;;;;;;;;;;;;;;;;;;104735;308;83215;-33
2023/10/07 08:22:37;;;;;;;;;;;;;;;;;;104660;308;83169;-32
2023/10/07 08:25:05;;;;;;;;;;;;;;;;;;104615;308;83573;-31
2023/10/07 08:30:09;;;;;;;;;;;;;;;;;;104621;308;83180;-31
2023/10/07 08:32:35;;;;;;;;;;;;;;;;;;104622;308;83237;-31
2023/10/07 08:35:00;;;;;;;;;;;;;;;;;;104769;308;83183;-33
2023/10/07 08:37:32;;;;;;;;;;;;;;;;;;104717;308;83158;-32
2023/10/07 08:39:57;;;;;;;;;;;;;;;;;;104684;308;83800;-33
2023/10/07 08:42:24;;;;;;;;;;;;;;;;;;104685;308;83237;-30
2023/10/07 08:44:53;;;;;;;;;;;;;;;;;;104663;308;83155;-34
2023/10/07 08:47:20;;;;;;;;;;;;;;;;;;104637;308;83240;-34
2023/10/07 08:49:46;;;;;;;;;;;;;;;;;;104713;308;83240;-31
2023/10/07 08:52:11;;;;;;;;;;;;;;;;;;104605;308;83180;-36
2023/10/07 08:54:44;;;;;;;;;;;;;;;;;;104722;308;83158;-31
2023/10/07 08:57:14;;;;;;;;;;;;;;;;;;104750;308;83135;-31
2023/10/07 08:59:41;;;;;;;;;;;;;;;;;;104693;308;83289;-36
2023/10/07 09:02:12;;;;;;;;;;;;;;;;;;104643;308;83167;-36
2023/10/07 09:04:38;;;;;;;;;;;;;;;;;;104747;308;83828;-34
2023/10/07 09:07:08;;;;;;;;;;;;;;;;;;104660;308;83228;-34
2023/10/07 09:09:39;;;;;;;;;;;;;;;;;;104625;308;83129;-36
2023/10/07 09:24:02;;;;;;;;;;;;;;;;;;108736;297;131101;31
2023/10/07 09:26:33;;;;;;;;;;;;;;;;;;104154;311;136013;-35
2023/10/07 09:28:59;;;;;;;;;;;;;;;;;;104280;311;80991;-31
2023/10/07 09:31:24;;;;;;;;;;;;;;;;;;104299;311;81004;-36
2023/10/07 09:33:49;;;;;;;;;;;;;;;;;;104338;311;81055;-34
2023/10/07 09:36:34;;;;;;;;;;;;;;;;;;105495;311;80869;-39
2023/10/07 09:41:36;;;;;;;;;;;;;;;;;;105074;311;81129;-31
2023/10/07 09:44:01;;;;;;;;;;;;;;;;;;104869;311;81384;-31
2023/10/07 09:46:34;;;;;;;;;;;;;;;;;;105562;311;14972;-35
2023/10/07 09:49:00;;;;;;;;;;;;;;;;;;105580;311;15161;-33
2023/10/07 09:51:29;;;;;;;;;;;;;;;;;;105606;311;14979;-37
2023/10/07 09:53:55;;;;;;;;;;;;;;;;;;105594;311;15136;-38
2023/10/07 09:56:21;;;;;;;;;;;;;;;;;;105538;311;14982;-32
2023/10/07 09:58:47;;;;;;;;;;;;;;;;;;105604;311;14935;-35
2023/10/07 10:01:28;;;;;;;;;;;;;;;;;;105607;311;15074;-31
2023/10/07 10:04:00;;;;;;;;;;;;;;;;;;105614;311;14946;-37
2023/10/07 10:06:25;;;;;;;;;;;;;;;;;;105625;311;14950;-37
2023/10/07 10:08:56;;;;;;;;;;;;;;;;;;105615;311;15120;-31
2023/10/07 10:16:44;;;;;;;;;;;;;;;;;;105619;311;15126;-37
2023/10/07 10:21:47;;;;;;;;;;;;;;;;;;105584;311;14906;-37
2023/10/07 10:24:12;;;;;;;;;;;;;;;;;;105632;311;15017;-32
2023/10/07 10:26:38;;;;;;;;;;;;;;;;;;105734;311;15017;-36
2023/10/07 10:31:43;;;;;;;;;;;;;;;;;;105705;311;14982;-31
2023/10/07 10:34:09;;;;;;;;;;;;;;;;;;105642;311;15077;-30
2023/10/07 10:36:35;;;;;;;;;;;;;;;;;;105761;311;15017;-31
2023/10/07 10:39:04;;;;;;;;;;;;;;;;;;105703;311;14997;-30
2023/10/07 10:41:29;;;;;;;;;;;;;;;;;;105690;311;14944;-34
2023/10/07 10:43:57;;;;;;;;;;;;;;;;;;105677;311;15155;-31
2023/10/07 10:46:27;;;;;;;;;;;;;;;;;;105712;311;14985;-35
2023/10/07 10:48:54;;;;;;;;;;;;;;;;;;105758;311;14985;-31
2023/10/07 10:51:19;;;;;;;;;;;;;;;;;;105523;311;15011;-31
2023/10/07 10:53:46;;;;;;;;;;;;;;;;;;105658;311;14982;-32
2023/10/07 10:56:12;;;;;;;;;;;;;;;;;;105762;311;15024;-42
2023/10/07 10:58:37;;;;;;;;;;;;;;;;;;105741;311;14977;-33
2023/10/07 11:01:02;;;;;;;;;;;;;;;;;;105664;311;15017;-30
2023/10/07 11:03:27;;;;;;;;;;;;;;;;;;105672;311;15132;-32
2023/10/07 11:05:52;;;;;;;;;;;;;;;;;;105715;311;14987;-32
2023/10/07 11:08:24;;;;;;;;;;;;;;;;;;105654;311;76503;-31
2023/10/07 11:10:49;;;;;;;;;;;;;;;;;;104423;311;82879;-35
2023/10/07 11:13:14;;;;;;;;;;;;;;;;;;104362;311;82902;-35
2023/10/07 11:15:41;;;;;;;;;;;;;;;;;;104382;311;83355;-34
2023/10/07 11:18:12;;;;;;;;;;;;;;;;;;104935;311;82722;-33
2023/10/07 11:20:37;;;;;;;;;;;;;;;;;;105681;311;15132;-31
2023/10/07 11:23:06;;;;;;;;;;;;;;;;;;105714;311;14995;-31
2023/10/07 11:25:33;;;;;;;;;;;;;;;;;;105688;311;14949;-35
2023/10/07 11:27:59;;;;;;;;;;;;;;;;;;105619;311;14944;-35
2023/10/07 11:30:24;;;;;;;;;;;;;;;;;;105679;311;14995;-31
2023/10/07 11:32:50;;;;;;;;;;;;;;;;;;105694;311;16224;-35
2023/10/07 11:35:16;;;;;;;;;;;;;;;;;;105691;311;14877;-40
2023/10/07 11:37:41;;;;;;;;;;;;;;;;;;105665;311;15017;-35
2023/10/07 11:40:11;;;;;;;;;;;;;;;;;;105591;311;14703;-31
2023/10/07 11:42:37;;;;;;;;;;;;;;;;;;105676;311;14985;-33
2023/10/07 11:45:04;;;;;;;;;;;;;;;;;;105654;311;15164;-36
2023/10/07 11:47:30;;;;;;;;;;;;;;;;;;105711;311;15151;-32
2023/10/07 11:49:55;;;;;;;;;;;;;;;;;;105621;311;14906;-31
2023/10/07 11:52:20;;;;;;;;;;;;;;;;;;105686;311;16009;-31
2023/10/07 11:54:45;;;;;;;;;;;;;;;;;;105783;311;14982;-36
2023/10/07 11:57:11;;;;;;;;;;;;;;;;;;105685;311;14984;-34
2023/10/07 11:59:41;;;;;;;;;;;;;;;;;;105672;311;15017;-29
2023/10/07 12:02:09;;;;;;;;;;;;;;;;;;105387;311;79311;-30
2023/10/07 12:04:38;;;;;;;;;;;;;;;;;;104351;311;82143;-35
2023/10/07 12:07:03;;;;;;;;;;;;;;;;;;104344;311;82101;-34
2023/10/07 12:09:28;;;;;;;;;;;;;;;;;;104394;311;82159;-35
2023/10/07 12:11:54;;;;;;;;;;;;;;;;;;104358;311;82127;-35
2023/10/07 12:14:20;;;;;;;;;;;;;;;;;;104312;311;82063;-34
2023/10/07 12:16:45;;;;;;;;;;;;;;;;;;104381;311;82150;-37
2023/10/07 12:19:17;;;;;;;;;;;;;;;;;;104419;311;82136;-30
2023/10/07 12:21:43;;;;;;;;;;;;;;;;;;104476;311;82504;-30
2023/10/07 12:24:09;;;;;;;;;;;;;;;;;;104325;311;82536;-35
2023/10/07 12:26:34;;;;;;;;;;;;;;;;;;105087;311;82352;-32
2023/10/07 12:28:59;;;;;;;;;;;;;;;;;;105664;311;14854;-35
2023/10/07 12:31:25;;;;;;;;;;;;;;;;;;105675;311;15100;-36
2023/10/07 12:33:50;;;;;;;;;;;;;;;;;;105726;311;15100;-35
2023/10/07 12:36:16;;;;;;;;;;;;;;;;;;105659;311;15248;-31
2023/10/07 12:38:41;;;;;;;;;;;;;;;;;;105704;311;15128;-36
2023/10/07 12:41:06;;;;;;;;;;;;;;;;;;105726;311;15100;-36
2023/10/07 12:43:33;;;;;;;;;;;;;;;;;;105670;311;15561;-33
2023/10/07 12:45:58;;;;;;;;;;;;;;;;;;105693;311;15017;-39
2023/10/07 12:48:23;;;;;;;;;;;;;;;;;;105685;311;15203;-35
2023/10/07 12:50:49;;;;;;;;;;;;;;;;;;105671;311;15093;-37
2023/10/07 12:53:14;;;;;;;;;;;;;;;;;;105579;311;15132;-31
2023/10/07 12:55:39;;;;;;;;;;;;;;;;;;105569;311;15273;-36
2023/10/07 12:58:15;;;;;;;;;;;;;;;;;;105609;311;15131;-35
2023/10/07 13:00:41;;;;;;;;;;;;;;;;;;105652;311;15053;-31
2023/10/07 13:03:06;;;;;;;;;;;;;;;;;;105641;311;14941;-31
2023/10/07 13:05:37;;;;;;;;;;;;;;;;;;105585;311;15055;-40
2023/10/07 13:08:02;;;;;;;;;;;;;;;;;;105584;311;14982;-35
2023/10/07 13:10:28;;;;;;;;;;;;;;;;;;105579;311;14969;-31
2023/10/07 13:12:55;;;;;;;;;;;;;;;;;;105616;311;15081;-35
2023/10/07 13:15:28;;;;;;;;;;;;;;;;;;105540;311;14908;-39
2023/10/07 13:17:54;;;;;;;;;;;;;;;;;;105563;311;15113;-33
2023/10/07 13:20:23;;;;;;;;;;;;;;;;;;105505;311;14335;-35
2023/10/07 13:22:48;;;;;;;;;;;;;;;;;;105632;311;14912;-29
2023/10/07 13:25:14;;;;;;;;;;;;;;;;;;105630;311;14985;-35
2023/10/07 13:27:39;;;;;;;;;;;;;;;;;;105530;311;14979;-35
2023/10/07 13:30:05;;;;;;;;;;;;;;;;;;105598;311;15031;-39
2023/10/07 13:32:31;;;;;;;;;;;;;;;;;;105592;311;15135;-37
2023/10/07 13:34:56;;;;;;;;;;;;;;;;;;105536;311;15248;-35
2023/10/07 13:37:22;;;;;;;;;;;;;;;;;;105547;311;15174;-31
2023/10/07 13:39:47;;;;;;;;;;;;;;;;;;105621;311;15113;-34
2023/10/07 13:42:13;;;;;;;;;;;;;;;;;;105109;311;83068;-30
2023/10/07 13:44:38;;;;;;;;;;;;;;;;;;104256;311;119861;-31
2023/10/07 13:47:07;;;;;;;;;;;;;;;;;;104236;311;83759;-35
2023/10/07 14:30:18;;;;;;;;;;;;;;;;;;108808;300;106597;31
2023/10/07 14:32:44;;;;;;;;;;;;;;;;;;104625;306;135746;-32
2023/10/07 14:36:26;;;;;;;;;;;;;;;;;;38191;306;168212751;-35
2023/10/07 14:43:27;;;;;;;;;;;;;;;;;;2759;307;417678285;-35
2023/10/07 14:54:41;;;;;;;;;;;;;;;;;;40229;307;603170562;-35
2023/10/07 15:04:23;;;;;;;;;;;;;;;;;;3572;307;576161664;-36
2023/10/07 15:13:28;;;;;;;;;;;;;;;;;;3570;307;540153186;-37
2023/10/07 15:23:36;;;;;;;;;;;;;;;;;;3335;309;603169702;-37
2023/10/07 15:33:17;;;;;;;;;;;;;;;;;;3571;307;576161405;-35
2023/10/07 15:42:26;;;;;;;;;;;;;;;;;;3564;307;540152643;-35
2023/10/07 15:52:39;;;;;;;;;;;;;;;;;;936;307;612168487;-35
2023/10/07 16:02:21;;;;;;;;;;;;;;;;;;3448;307;576162279;-36
2023/10/07 16:11:26;;;;;;;;;;;;;;;;;;3450;307;540149834;-36
2023/10/07 16:21:43;;;;;;;;;;;;;;;;;;3568;307;612172460;-37
2023/10/07 16:31:24;;;;;;;;;;;;;;;;;;3443;307;576159920;-37
2023/10/07 16:40:29;;;;;;;;;;;;;;;;;;3551;307;540151249;-37
2023/10/07 16:50:46;;;;;;;;;;;;;;;;;;3566;307;612169820;-34
2023/10/07 17:00:27;;;;;;;;;;;;;;;;;;3129;307;576161676;-34
2023/10/07 17:09:33;;;;;;;;;;;;;;;;;;3503;307;540153055;-34
2023/10/07 17:19:50;;;;;;;;;;;;;;;;;;3565;307;612170088;-35
2023/10/07 17:29:31;;;;;;;;;;;;;;;;;;3573;307;576159216;-34
2023/10/07 17:38:37;;;;;;;;;;;;;;;;;;3571;307;540151817;-34
2023/10/07 17:48:53;;;;;;;;;;;;;;;;;;3051;307;612170475;-37
2023/10/07 17:58:34;;;;;;;;;;;;;;;;;;3473;307;576159456;-35
2023/10/07 18:07:40;;;;;;;;;;;;;;;;;;3565;307;540152961;-34
2023/10/07 18:17:57;;;;;;;;;;;;;;;;;;3346;307;612170563;-36
2023/10/07 18:27:38;;;;;;;;;;;;;;;;;;3571;307;576159472;-36
2023/10/07 18:36:43;;;;;;;;;;;;;;;;;;3562;307;540154428;-36
2023/10/07 18:47:00;;;;;;;;;;;;;;;;;;3489;307;612170603;-33
2023/10/07 19:40:43;;;;;;;;;;;;;;;;;;2;576125961;576125961;31
2023/10/07 19:49:43;;;;;;;;;;;;;;;;;;221;307;540151603;-41
2023/10/07 19:59:52;;;;;;;;;;;;;;;;;;3548;308;603165720;-35
2023/10/07 20:09:33;;;;;;;;;;;;;;;;;;3546;308;576163433;-36
2023/10/07 20:18:38;;;;;;;;;;;;;;;;;;3264;308;540152471;-36
2023/10/07 20:28:46;;;;;;;;;;;;;;;;;;3567;308;603169337;-33
2023/10/07 20:38:27;;;;;;;;;;;;;;;;;;3548;308;576161325;-34
2023/10/07 20:47:33;;;;;;;;;;;;;;;;;;3429;309;540152460;-38
2023/10/07 20:57:41;;;;;;;;;;;;;;;;;;3138;309;603169809;-38
2023/10/07 21:07:22;;;;;;;;;;;;;;;;;;3213;309;576161479;-38
2023/10/07 21:16:27;;;;;;;;;;;;;;;;;;3554;309;540152531;-38
2023/10/07 21:26:44;;;;;;;;;;;;;;;;;;3241;309;612171353;-38
2023/10/07 21:36:25;;;;;;;;;;;;;;;;;;3512;309;576161156;-39
2023/10/07 21:45:30;;;;;;;;;;;;;;;;;;3566;309;540152644;-36
2023/10/07 21:55:48;;;;;;;;;;;;;;;;;;3573;309;612172570;-35
2023/10/07 22:05:29;;;;;;;;;;;;;;;;;;3566;309;576161675;-39
2023/10/07 22:14:34;;;;;;;;;;;;;;;;;;3507;309;540156476;-39
2023/10/07 22:24:51;;;;;;;;;;;;;;;;;;3547;309;612171843;-39
2023/10/07 22:34:33;;;;;;;;;;;;;;;;;;3552;309;576162699;-38
2023/10/07 22:43:38;;;;;;;;;;;;;;;;;;2832;309;540151098;-35
2023/10/07 23:03:49;;;;;;;;;;;;;;;;;;2;576161510;576161510;-38
2023/10/07 23:13:01;;;;;;;;;;;;;;;;;;2;540153172;540153172;-35
2023/10/07 23:23:13;;;;;;;;;;;;;;;;;;2;612172789;612172789;-38
2023/10/07 23:32:57;;;;;;;;;;;;;;;;;;3484;309;576158431;-35
2023/10/07 23:42:11;;;;;;;;;;;;;;;;;;1403;309;540151809;-39
2023/10/07 23:52:23;;;;;;;;;;;;;;;;;;2;612171768;612171768;-38
